sensor_id;sensor_type;location;lat;lon;timestamp;temperature;humidity
54684;DHT22;40582;53.100;6.686;2023-07-08T00:00:19;16.50;99.90
54684;DHT22;40582;53.100;6.686;2023-07-08T00:02:45;16.50;99.90
54684;DHT22;40582;53.100;6.686;2023-07-08T00:05:13;16.50;99.90
54684;DHT22;40582;53.100;6.686;2023-07-08T00:07:40;16.50;99.90
54684;DHT22;40582;53.100;6.686;2023-07-08T00:10:15;16.40;99.90
54684;DHT22;40582;53.100;6.686;2023-07-08T00:12:43;16.40;99.90
54684;DHT22;40582;53.100;6.686;2023-07-08T00:15:10;16.40;99.90
54684;DHT22;40582;53.100;6.686;2023-07-08T00:17:37;16.30;99.90
54684;DHT22;40582;53.100;6.686;2023-07-08T00:22:55;16.30;99.90
54684;DHT22;40582;53.100;6.686;2023-07-08T00:25:22;16.20;99.90
54684;DHT22;40582;53.100;6.686;2023-07-08T00:27:48;16.20;99.90
54684;DHT22;40582;53.100;6.686;2023-07-08T00:30:26;16.20;99.90
54684;DHT22;40582;53.100;6.686;2023-07-08T00:32:53;16.20;99.90
54684;DHT22;40582;53.100;6.686;2023-07-08T00:35:41;16.10;99.90
54684;DHT22;40582;53.100;6.686;2023-07-08T00:38:28;16.10;99.90
54684;DHT22;40582;53.100;6.686;2023-07-08T00:46:18;15.90;99.90
54684;DHT22;40582;53.100;6.686;2023-07-08T00:48:47;15.90;99.90
54684;DHT22;40582;53.100;6.686;2023-07-08T00:51:14;15.80;99.90
54684;DHT22;40582;53.100;6.686;2023-07-08T00:53:39;15.80;99.90
54684;DHT22;40582;53.100;6.686;2023-07-08T00:58:41;15.80;99.90
54684;DHT22;40582;53.100;6.686;2023-07-08T01:01:08;15.70;99.90
54684;DHT22;40582;53.100;6.686;2023-07-08T01:03:45;15.70;99.90
54684;DHT22;40582;53.100;6.686;2023-07-08T01:06:15;15.70;99.90
54684;DHT22;40582;53.100;6.686;2023-07-08T01:08:41;15.70;99.90
54684;DHT22;40582;53.100;6.686;2023-07-08T01:11:07;15.70;99.90
54684;DHT22;40582;53.100;6.686;2023-07-08T01:13:37;15.70;99.90
54684;DHT22;40582;53.100;6.686;2023-07-08T01:16:04;15.70;99.90
54684;DHT22;40582;53.100;6.686;2023-07-08T01:18:31;15.70;99.90
54684;DHT22;40582;53.100;6.686;2023-07-08T01:21:02;15.60;99.90
54684;DHT22;40582;53.100;6.686;2023-07-08T01:23:31;15.60;99.90
54684;DHT22;40582;53.100;6.686;2023-07-08T01:25:57;15.60;99.90
54684;DHT22;40582;53.100;6.686;2023-07-08T01:28:22;15.50;99.90
54684;DHT22;40582;53.100;6.686;2023-07-08T01:30:48;15.50;99.90
54684;DHT22;40582;53.100;6.686;2023-07-08T01:33:20;15.40;99.90
54684;DHT22;40582;53.100;6.686;2023-07-08T01:35:47;15.40;99.90
54684;DHT22;40582;53.100;6.686;2023-07-08T01:38:18;15.40;99.90
54684;DHT22;40582;53.100;6.686;2023-07-08T01:40:55;15.40;99.90
54684;DHT22;40582;53.100;6.686;2023-07-08T01:43:21;15.40;99.90
54684;DHT22;40582;53.100;6.686;2023-07-08T01:45:48;15.30;99.90
54684;DHT22;40582;53.100;6.686;2023-07-08T01:48:18;15.30;99.90
54684;DHT22;40582;53.100;6.686;2023-07-08T01:51:10;15.30;99.90
54684;DHT22;40582;53.100;6.686;2023-07-08T01:53:39;15.20;99.90
54684;DHT22;40582;53.100;6.686;2023-07-08T01:56:06;15.20;99.90
54684;DHT22;40582;53.100;6.686;2023-07-08T01:58:33;15.20;99.90
54684;DHT22;40582;53.100;6.686;2023-07-08T02:00:59;15.20;99.90
54684;DHT22;40582;53.100;6.686;2023-07-08T02:03:26;15.20;99.90
54684;DHT22;40582;53.100;6.686;2023-07-08T02:05:52;15.10;99.90
54684;DHT22;40582;53.100;6.686;2023-07-08T02:08:18;15.10;99.90
54684;DHT22;40582;53.100;6.686;2023-07-08T02:10:46;15.10;99.90
54684;DHT22;40582;53.100;6.686;2023-07-08T02:13:11;15.10;99.90
54684;DHT22;40582;53.100;6.686;2023-07-08T02:15:37;15.00;99.90
54684;DHT22;40582;53.100;6.686;2023-07-08T02:18:02;15.00;99.90
54684;DHT22;40582;53.100;6.686;2023-07-08T02:20:28;15.00;99.90
54684;DHT22;40582;53.100;6.686;2023-07-08T02:22:54;15.00;99.90
54684;DHT22;40582;53.100;6.686;2023-07-08T02:25:20;15.00;99.90
54684;DHT22;40582;53.100;6.686;2023-07-08T02:27:45;15.00;99.90
54684;DHT22;40582;53.100;6.686;2023-07-08T02:30:11;15.00;99.90
54684;DHT22;40582;53.100;6.686;2023-07-08T02:32:37;14.90;99.90
54684;DHT22;40582;53.100;6.686;2023-07-08T02:35:05;14.90;99.90
54684;DHT22;40582;53.100;6.686;2023-07-08T02:37:31;14.90;99.90
54684;DHT22;40582;53.100;6.686;2023-07-08T02:39:57;14.90;99.90
54684;DHT22;40582;53.100;6.686;2023-07-08T02:42:23;14.90;99.90
54684;DHT22;40582;53.100;6.686;2023-07-08T02:44:49;14.80;99.90
54684;DHT22;40582;53.100;6.686;2023-07-08T02:47:15;14.80;99.90
54684;DHT22;40582;53.100;6.686;2023-07-08T02:49:40;14.70;99.90
54684;DHT22;40582;53.100;6.686;2023-07-08T02:52:06;14.80;99.90
54684;DHT22;40582;53.100;6.686;2023-07-08T02:54:32;14.80;99.90
54684;DHT22;40582;53.100;6.686;2023-07-08T02:56:57;14.70;99.90
54684;DHT22;40582;53.100;6.686;2023-07-08T02:59:23;14.70;99.90
54684;DHT22;40582;53.100;6.686;2023-07-08T03:01:49;14.70;99.90
54684;DHT22;40582;53.100;6.686;2023-07-08T03:04:16;14.60;99.90
54684;DHT22;40582;53.100;6.686;2023-07-08T03:06:45;14.70;99.90
54684;DHT22;40582;53.100;6.686;2023-07-08T03:09:12;14.70;99.90
54684;DHT22;40582;53.100;6.686;2023-07-08T03:11:38;14.70;99.90
54684;DHT22;40582;53.100;6.686;2023-07-08T03:14:05;14.70;99.90
54684;DHT22;40582;53.100;6.686;2023-07-08T03:16:31;14.70;99.90
54684;DHT22;40582;53.100;6.686;2023-07-08T03:18:57;14.60;99.90
54684;DHT22;40582;53.100;6.686;2023-07-08T03:21:23;14.60;99.90
54684;DHT22;40582;53.100;6.686;2023-07-08T03:23:50;14.60;99.90
54684;DHT22;40582;53.100;6.686;2023-07-08T03:26:19;14.60;99.90
54684;DHT22;40582;53.100;6.686;2023-07-08T03:28:46;14.60;99.90
54684;DHT22;40582;53.100;6.686;2023-07-08T03:31:12;14.60;99.90
54684;DHT22;40582;53.100;6.686;2023-07-08T03:33:37;14.60;99.90
54684;DHT22;40582;53.100;6.686;2023-07-08T03:36:15;14.60;99.90
54684;DHT22;40582;53.100;6.686;2023-07-08T03:38:55;14.60;99.90
54684;DHT22;40582;53.100;6.686;2023-07-08T03:41:21;14.60;99.90
54684;DHT22;40582;53.100;6.686;2023-07-08T03:43:48;14.60;99.90
54684;DHT22;40582;53.100;6.686;2023-07-08T03:46:19;14.60;99.90
54684;DHT22;40582;53.100;6.686;2023-07-08T03:48:46;14.60;99.90
54684;DHT22;40582;53.100;6.686;2023-07-08T03:51:20;14.60;99.90
54684;DHT22;40582;53.100;6.686;2023-07-08T03:53:46;14.70;99.90
54684;DHT22;40582;53.100;6.686;2023-07-08T03:56:12;14.70;99.90
54684;DHT22;40582;53.100;6.686;2023-07-08T03:58:41;14.70;99.90
54684;DHT22;40582;53.100;6.686;2023-07-08T04:01:17;14.70;99.90
54684;DHT22;40582;53.100;6.686;2023-07-08T04:03:44;14.80;99.90
54684;DHT22;40582;53.100;6.686;2023-07-08T04:06:10;14.80;99.90
54684;DHT22;40582;53.100;6.686;2023-07-08T04:08:35;14.90;99.90
54684;DHT22;40582;53.100;6.686;2023-07-08T04:11:01;14.90;99.90
54684;DHT22;40582;53.100;6.686;2023-07-08T04:13:27;14.90;99.90
54684;DHT22;40582;53.100;6.686;2023-07-08T04:16:02;15.00;99.90
54684;DHT22;40582;53.100;6.686;2023-07-08T04:18:28;15.00;99.90
54684;DHT22;40582;53.100;6.686;2023-07-08T04:20:53;15.10;99.90
54684;DHT22;40582;53.100;6.686;2023-07-08T04:23:19;15.20;99.90
54684;DHT22;40582;53.100;6.686;2023-07-08T04:25:47;15.20;99.90
54684;DHT22;40582;53.100;6.686;2023-07-08T04:28:13;15.20;99.90
54684;DHT22;40582;53.100;6.686;2023-07-08T04:30:39;15.30;99.90
54684;DHT22;40582;53.100;6.686;2023-07-08T04:33:11;15.40;99.90
54684;DHT22;40582;53.100;6.686;2023-07-08T04:35:37;15.40;99.90
54684;DHT22;40582;53.100;6.686;2023-07-08T04:38:08;15.50;99.90
54684;DHT22;40582;53.100;6.686;2023-07-08T04:40:37;15.60;99.90
54684;DHT22;40582;53.100;6.686;2023-07-08T04:43:06;15.70;99.90
54684;DHT22;40582;53.100;6.686;2023-07-08T04:45:32;15.90;99.90
54684;DHT22;40582;53.100;6.686;2023-07-08T04:47:57;16.00;99.90
54684;DHT22;40582;53.100;6.686;2023-07-08T04:50:23;16.20;99.90
54684;DHT22;40582;53.100;6.686;2023-07-08T04:52:49;17.20;99.90
54684;DHT22;40582;53.100;6.686;2023-07-08T04:55:15;17.30;99.90
54684;DHT22;40582;53.100;6.686;2023-07-08T04:57:41;17.30;99.90
54684;DHT22;40582;53.100;6.686;2023-07-08T05:00:09;17.50;99.90
54684;DHT22;40582;53.100;6.686;2023-07-08T05:02:37;17.90;99.90
54684;DHT22;40582;53.100;6.686;2023-07-08T05:05:03;18.00;99.90
54684;DHT22;40582;53.100;6.686;2023-07-08T05:07:29;18.10;99.90
54684;DHT22;40582;53.100;6.686;2023-07-08T05:09:55;18.40;99.90
54684;DHT22;40582;53.100;6.686;2023-07-08T05:12:21;18.30;99.90
54684;DHT22;40582;53.100;6.686;2023-07-08T05:14:47;18.30;99.90
54684;DHT22;40582;53.100;6.686;2023-07-08T05:17:13;18.50;99.90
54684;DHT22;40582;53.100;6.686;2023-07-08T05:19:38;20.10;99.90
54684;DHT22;40582;53.100;6.686;2023-07-08T05:22:06;21.70;99.90
54684;DHT22;40582;53.100;6.686;2023-07-08T05:24:32;23.00;99.80
54684;DHT22;40582;53.100;6.686;2023-07-08T05:26:58;24.00;97.50
54684;DHT22;40582;53.100;6.686;2023-07-08T05:29:24;24.90;95.20
54684;DHT22;40582;53.100;6.686;2023-07-08T05:31:50;25.60;93.30
54684;DHT22;40582;53.100;6.686;2023-07-08T05:34:16;26.30;91.80
54684;DHT22;40582;53.100;6.686;2023-07-08T05:36:42;26.90;90.10
54684;DHT22;40582;53.100;6.686;2023-07-08T05:39:07;27.60;87.30
54684;DHT22;40582;53.100;6.686;2023-07-08T05:41:33;28.30;84.40
54684;DHT22;40582;53.100;6.686;2023-07-08T05:43:59;28.70;81.70
54684;DHT22;40582;53.100;6.686;2023-07-08T05:46:24;29.10;79.70
54684;DHT22;40582;53.100;6.686;2023-07-08T05:48:50;29.50;77.90
54684;DHT22;40582;53.100;6.686;2023-07-08T05:51:16;29.70;76.40
54684;DHT22;40582;53.100;6.686;2023-07-08T05:53:42;30.20;75.40
54684;DHT22;40582;53.100;6.686;2023-07-08T05:56:08;30.40;73.30
54684;DHT22;40582;53.100;6.686;2023-07-08T05:58:33;30.80;72.60
54684;DHT22;40582;53.100;6.686;2023-07-08T06:00:59;31.10;71.60
54684;DHT22;40582;53.100;6.686;2023-07-08T06:03:25;31.40;71.00
54684;DHT22;40582;53.100;6.686;2023-07-08T06:05:51;31.70;70.10
54684;DHT22;40582;53.100;6.686;2023-07-08T06:08:17;32.10;69.00
54684;DHT22;40582;53.100;6.686;2023-07-08T06:10:45;32.40;68.50
54684;DHT22;40582;53.100;6.686;2023-07-08T06:13:12;32.50;66.70
54684;DHT22;40582;53.100;6.686;2023-07-08T06:15:38;32.80;66.20
54684;DHT22;40582;53.100;6.686;2023-07-08T06:18:05;33.10;65.80
54684;DHT22;40582;53.100;6.686;2023-07-08T06:20:31;33.30;65.40
54684;DHT22;40582;53.100;6.686;2023-07-08T06:22:56;33.30;64.40
54684;DHT22;40582;53.100;6.686;2023-07-08T06:25:22;33.50;64.00
54684;DHT22;40582;53.100;6.686;2023-07-08T06:27:48;33.70;63.80
54684;DHT22;40582;53.100;6.686;2023-07-08T06:30:13;34.00;63.50
54684;DHT22;40582;53.100;6.686;2023-07-08T06:32:39;33.90;62.80
54684;DHT22;40582;53.100;6.686;2023-07-08T06:35:05;34.00;62.40
54684;DHT22;40582;53.100;6.686;2023-07-08T06:37:31;34.20;62.20
54684;DHT22;40582;53.100;6.686;2023-07-08T06:39:57;34.30;62.00
54684;DHT22;40582;53.100;6.686;2023-07-08T06:42:22;34.70;61.50
54684;DHT22;40582;53.100;6.686;2023-07-08T06:44:48;34.30;60.90
54684;DHT22;40582;53.100;6.686;2023-07-08T06:47:18;34.50;61.60
54684;DHT22;40582;53.100;6.686;2023-07-08T06:49:43;34.50;60.90
54684;DHT22;40582;53.100;6.686;2023-07-08T06:52:09;34.50;60.80
54684;DHT22;40582;53.100;6.686;2023-07-08T06:54:35;34.60;60.40
54684;DHT22;40582;53.100;6.686;2023-07-08T06:57:01;34.50;60.00
54684;DHT22;40582;53.100;6.686;2023-07-08T06:59:26;34.40;60.20
54684;DHT22;40582;53.100;6.686;2023-07-08T07:01:54;34.30;60.10
54684;DHT22;40582;53.100;6.686;2023-07-08T07:04:19;34.40;60.10
54684;DHT22;40582;53.100;6.686;2023-07-08T07:06:45;34.60;60.10
54684;DHT22;40582;53.100;6.686;2023-07-08T07:09:11;34.90;59.70
54684;DHT22;40582;53.100;6.686;2023-07-08T07:11:37;35.00;59.50
54684;DHT22;40582;53.100;6.686;2023-07-08T07:14:02;35.20;59.10
54684;DHT22;40582;53.100;6.686;2023-07-08T07:16:29;35.50;58.90
54684;DHT22;40582;53.100;6.686;2023-07-08T07:18:55;35.60;58.60
54684;DHT22;40582;53.100;6.686;2023-07-08T07:21:21;35.40;58.40
54684;DHT22;40582;53.100;6.686;2023-07-08T07:23:46;35.60;58.30
54684;DHT22;40582;53.100;6.686;2023-07-08T07:26:12;35.70;57.70
54684;DHT22;40582;53.100;6.686;2023-07-08T07:28:38;35.70;57.80
54684;DHT22;40582;53.100;6.686;2023-07-08T07:31:04;35.80;57.40
54684;DHT22;40582;53.100;6.686;2023-07-08T07:33:32;35.60;57.20
54684;DHT22;40582;53.100;6.686;2023-07-08T07:35:58;35.30;57.80
54684;DHT22;40582;53.100;6.686;2023-07-08T07:38:24;35.20;57.70
54684;DHT22;40582;53.100;6.686;2023-07-08T07:40:55;35.10;58.40
54684;DHT22;40582;53.100;6.686;2023-07-08T07:43:21;34.60;58.60
54684;DHT22;40582;53.100;6.686;2023-07-08T07:45:53;34.70;58.70
54684;DHT22;40582;53.100;6.686;2023-07-08T07:48:21;34.90;58.60
54684;DHT22;40582;53.100;6.686;2023-07-08T07:50:48;34.90;59.20
54684;DHT22;40582;53.100;6.686;2023-07-08T07:53:15;35.10;59.40
54684;DHT22;40582;53.100;6.686;2023-07-08T07:55:40;34.90;59.30
54684;DHT22;40582;53.100;6.686;2023-07-08T07:58:06;34.90;59.60
54684;DHT22;40582;53.100;6.686;2023-07-08T08:00:33;35.00;59.20
54684;DHT22;40582;53.100;6.686;2023-07-08T08:02:59;35.00;59.10
54684;DHT22;40582;53.100;6.686;2023-07-08T08:05:25;34.70;59.60
54684;DHT22;40582;53.100;6.686;2023-07-08T08:07:50;34.90;59.50
54684;DHT22;40582;53.100;6.686;2023-07-08T08:10:16;34.80;59.10
54684;DHT22;40582;53.100;6.686;2023-07-08T08:12:42;34.50;59.10
54684;DHT22;40582;53.100;6.686;2023-07-08T08:15:08;34.40;59.40
54684;DHT22;40582;53.100;6.686;2023-07-08T08:17:33;34.30;59.70
54684;DHT22;40582;53.100;6.686;2023-07-08T08:19:59;34.40;60.20
54684;DHT22;40582;53.100;6.686;2023-07-08T08:22:25;34.70;59.70
54684;DHT22;40582;53.100;6.686;2023-07-08T08:24:50;34.70;59.50
54684;DHT22;40582;53.100;6.686;2023-07-08T08:27:16;34.50;59.70
54684;DHT22;40582;53.100;6.686;2023-07-08T08:29:42;34.20;59.50
54684;DHT22;40582;53.100;6.686;2023-07-08T08:32:07;34.00;60.10
54684;DHT22;40582;53.100;6.686;2023-07-08T08:34:33;33.70;60.40
54684;DHT22;40582;53.100;6.686;2023-07-08T08:36:59;33.60;60.40
54684;DHT22;40582;53.100;6.686;2023-07-08T08:39:24;33.40;60.90
54684;DHT22;40582;53.100;6.686;2023-07-08T08:41:52;33.20;61.00
54684;DHT22;40582;53.100;6.686;2023-07-08T08:44:32;33.10;61.50
54684;DHT22;40582;53.100;6.686;2023-07-08T08:47:11;33.30;60.90
54684;DHT22;40582;53.100;6.686;2023-07-08T08:49:54;33.40;62.00
54684;DHT22;40582;53.100;6.686;2023-07-08T08:52:21;33.30;61.20
54684;DHT22;40582;53.100;6.686;2023-07-08T08:54:47;33.30;61.20
54684;DHT22;40582;53.100;6.686;2023-07-08T08:57:34;33.10;60.70
54684;DHT22;40582;53.100;6.686;2023-07-08T09:00:02;33.10;60.90
54684;DHT22;40582;53.100;6.686;2023-07-08T09:05:13;33.60;61.70
54684;DHT22;40582;53.100;6.686;2023-07-08T09:08:05;33.80;60.40
54684;DHT22;40582;53.100;6.686;2023-07-08T09:13:34;33.30;59.50
54684;DHT22;40582;53.100;6.686;2023-07-08T09:19:26;32.90;60.80
54684;DHT22;40582;53.100;6.686;2023-07-08T09:22:25;32.50;60.80
54684;DHT22;40582;53.100;6.686;2023-07-08T09:25:03;32.50;61.20
54684;DHT22;40582;53.100;6.686;2023-07-08T09:27:30;32.60;61.80
54684;DHT22;40582;53.100;6.686;2023-07-08T09:29:56;32.60;61.80
54684;DHT22;40582;53.100;6.686;2023-07-08T09:32:24;32.60;60.90
54684;DHT22;40582;53.100;6.686;2023-07-08T09:34:56;32.60;60.90
54684;DHT22;40582;53.100;6.686;2023-07-08T09:37:33;32.60;60.90
54684;DHT22;40582;53.100;6.686;2023-07-08T09:40:03;32.60;61.80
54684;DHT22;40582;53.100;6.686;2023-07-08T09:42:32;32.60;62.30
54684;DHT22;40582;53.100;6.686;2023-07-08T09:45:13;32.60;61.70
54684;DHT22;40582;53.100;6.686;2023-07-08T09:47:39;32.50;62.20
54684;DHT22;40582;53.100;6.686;2023-07-08T09:50:24;32.40;61.10
54684;DHT22;40582;53.100;6.686;2023-07-08T09:52:52;32.30;60.50
54684;DHT22;40582;53.100;6.686;2023-07-08T09:55:19;32.00;62.20
54684;DHT22;40582;53.100;6.686;2023-07-08T09:57:48;32.10;62.80
54684;DHT22;40582;53.100;6.686;2023-07-08T10:00:25;32.20;62.90
54684;DHT22;40582;53.100;6.686;2023-07-08T10:02:54;32.30;62.80
54684;DHT22;40582;53.100;6.686;2023-07-08T10:05:38;32.10;61.70
54684;DHT22;40582;53.100;6.686;2023-07-08T10:08:17;32.00;62.40
54684;DHT22;40582;53.100;6.686;2023-07-08T10:10:46;32.10;61.70
54684;DHT22;40582;53.100;6.686;2023-07-08T10:13:37;31.90;61.70
54684;DHT22;40582;53.100;6.686;2023-07-08T10:16:24;31.90;62.40
54684;DHT22;40582;53.100;6.686;2023-07-08T10:18:51;31.80;63.30
54684;DHT22;40582;53.100;6.686;2023-07-08T10:21:35;31.80;62.90
54684;DHT22;40582;53.100;6.686;2023-07-08T10:26:32;31.80;63.20
54684;DHT22;40582;53.100;6.686;2023-07-08T10:34:42;31.30;62.30
54684;DHT22;40582;53.100;6.686;2023-07-08T10:42:50;30.90;63.90
54684;DHT22;40582;53.100;6.686;2023-07-08T10:45:29;31.10;64.40
54684;DHT22;40582;53.100;6.686;2023-07-08T10:48:35;31.20;64.20
54684;DHT22;40582;53.100;6.686;2023-07-08T11:09:57;31.00;63.60
54684;DHT22;40582;53.100;6.686;2023-07-08T11:12:29;31.20;64.80
54684;DHT22;40582;53.100;6.686;2023-07-08T11:15:25;31.20;64.20
54684;DHT22;40582;53.100;6.686;2023-07-08T11:18:15;31.30;63.50
54684;DHT22;40582;53.100;6.686;2023-07-08T11:21:06;31.20;64.20
54684;DHT22;40582;53.100;6.686;2023-07-08T11:23:38;31.30;64.00
54684;DHT22;40582;53.100;6.686;2023-07-08T11:28:34;31.60;64.50
54684;DHT22;40582;53.100;6.686;2023-07-08T11:31:01;31.80;64.80
54684;DHT22;40582;53.100;6.686;2023-07-08T11:33:28;31.60;63.00
54684;DHT22;40582;53.100;6.686;2023-07-08T11:35:56;31.20;63.20
54684;DHT22;40582;53.100;6.686;2023-07-08T11:38:25;31.30;64.00
54684;DHT22;40582;53.100;6.686;2023-07-08T11:43:19;31.30;64.10
54684;DHT22;40582;53.100;6.686;2023-07-08T11:45:46;31.30;64.20
54684;DHT22;40582;53.100;6.686;2023-07-08T11:48:18;31.50;63.70
54684;DHT22;40582;53.100;6.686;2023-07-08T11:50:47;31.60;63.10
54684;DHT22;40582;53.100;6.686;2023-07-08T11:56:00;31.50;62.60
54684;DHT22;40582;53.100;6.686;2023-07-08T12:06:44;31.80;63.10
54684;DHT22;40582;53.100;6.686;2023-07-08T12:09:26;31.90;63.20
54684;DHT22;40582;53.100;6.686;2023-07-08T12:12:02;31.90;62.90
54684;DHT22;40582;53.100;6.686;2023-07-08T12:14:29;31.70;61.20
54684;DHT22;40582;53.100;6.686;2023-07-08T12:16:56;31.60;61.90
54684;DHT22;40582;53.100;6.686;2023-07-08T12:19:24;31.70;62.40
54684;DHT22;40582;53.100;6.686;2023-07-08T12:21:51;31.70;62.80
54684;DHT22;40582;53.100;6.686;2023-07-08T12:24:18;31.80;62.50
54684;DHT22;40582;53.100;6.686;2023-07-08T12:26:44;31.90;62.40
54684;DHT22;40582;53.100;6.686;2023-07-08T12:29:13;31.90;62.20
54684;DHT22;40582;53.100;6.686;2023-07-08T12:31:40;32.10;62.90
54684;DHT22;40582;53.100;6.686;2023-07-08T12:34:13;32.10;62.10
54684;DHT22;40582;53.100;6.686;2023-07-08T12:36:39;32.10;61.10
54684;DHT22;40582;53.100;6.686;2023-07-08T12:39:05;31.80;61.50
54684;DHT22;40582;53.100;6.686;2023-07-08T12:41:33;31.90;62.10
54684;DHT22;40582;53.100;6.686;2023-07-08T12:44:00;32.00;62.00
54684;DHT22;40582;53.100;6.686;2023-07-08T12:46:26;32.00;61.70
54684;DHT22;40582;53.100;6.686;2023-07-08T12:48:52;31.90;61.60
54684;DHT22;40582;53.100;6.686;2023-07-08T12:51:21;32.00;62.50
54684;DHT22;40582;53.100;6.686;2023-07-08T12:53:47;32.10;62.50
54684;DHT22;40582;53.100;6.686;2023-07-08T12:56:14;32.10;62.60
54684;DHT22;40582;53.100;6.686;2023-07-08T12:58:43;32.20;61.80
54684;DHT22;40582;53.100;6.686;2023-07-08T13:01:16;32.20;61.60
54684;DHT22;40582;53.100;6.686;2023-07-08T13:03:45;32.20;60.20
54684;DHT22;40582;53.100;6.686;2023-07-08T13:06:16;32.10;61.50
54684;DHT22;40582;53.100;6.686;2023-07-08T13:08:43;32.00;61.30
54684;DHT22;40582;53.100;6.686;2023-07-08T13:11:14;32.10;62.80
54684;DHT22;40582;53.100;6.686;2023-07-08T13:13:54;32.00;60.90
54684;DHT22;40582;53.100;6.686;2023-07-08T13:16:20;32.10;61.60
54684;DHT22;40582;53.100;6.686;2023-07-08T13:18:47;32.10;60.80
54684;DHT22;40582;53.100;6.686;2023-07-08T13:21:14;32.10;60.20
54684;DHT22;40582;53.100;6.686;2023-07-08T13:23:41;32.10;59.40
54684;DHT22;40582;53.100;6.686;2023-07-08T13:26:25;32.10;59.00
54684;DHT22;40582;53.100;6.686;2023-07-08T13:29:20;32.10;60.90
54684;DHT22;40582;53.100;6.686;2023-07-08T13:31:52;32.20;59.70
54684;DHT22;40582;53.100;6.686;2023-07-08T13:34:19;32.30;59.70
54684;DHT22;40582;53.100;6.686;2023-07-08T13:36:50;32.40;59.70
54684;DHT22;40582;53.100;6.686;2023-07-08T13:39:29;32.40;59.80
54684;DHT22;40582;53.100;6.686;2023-07-08T13:41:57;32.40;58.30
54684;DHT22;40582;53.100;6.686;2023-07-08T13:44:23;32.30;58.60
54684;DHT22;40582;53.100;6.686;2023-07-08T13:46:57;32.30;58.60
54684;DHT22;40582;53.100;6.686;2023-07-08T13:49:26;32.30;58.10
54684;DHT22;40582;53.100;6.686;2023-07-08T13:52:07;32.20;57.90
54684;DHT22;40582;53.100;6.686;2023-07-08T13:54:42;32.10;58.40
54684;DHT22;40582;53.100;6.686;2023-07-08T13:57:09;32.10;59.20
54684;DHT22;40582;53.100;6.686;2023-07-08T13:59:35;32.10;58.80
54684;DHT22;40582;53.100;6.686;2023-07-08T14:02:00;32.10;59.00
54684;DHT22;40582;53.100;6.686;2023-07-08T14:04:34;32.10;59.10
54684;DHT22;40582;53.100;6.686;2023-07-08T14:07:00;32.20;59.00
54684;DHT22;40582;53.100;6.686;2023-07-08T14:09:25;32.10;58.70
54684;DHT22;40582;53.100;6.686;2023-07-08T14:11:52;32.10;58.50
54684;DHT22;40582;53.100;6.686;2023-07-08T14:14:18;32.10;59.20
54684;DHT22;40582;53.100;6.686;2023-07-08T14:16:46;32.20;59.70
54684;DHT22;40582;53.100;6.686;2023-07-08T14:19:25;32.10;58.90
54684;DHT22;40582;53.100;6.686;2023-07-08T14:21:55;32.10;58.90
54684;DHT22;40582;53.100;6.686;2023-07-08T14:24:21;32.10;58.60
54684;DHT22;40582;53.100;6.686;2023-07-08T14:26:47;32.00;57.90
54684;DHT22;40582;53.100;6.686;2023-07-08T14:29:13;32.00;58.10
54684;DHT22;40582;53.100;6.686;2023-07-08T14:31:40;32.00;58.30
54684;DHT22;40582;53.100;6.686;2023-07-08T14:34:09;32.00;59.20
54684;DHT22;40582;53.100;6.686;2023-07-08T14:36:37;32.00;59.30
54684;DHT22;40582;53.100;6.686;2023-07-08T14:39:16;32.00;58.70
54684;DHT22;40582;53.100;6.686;2023-07-08T14:41:43;32.00;59.10
54684;DHT22;40582;53.100;6.686;2023-07-08T14:44:26;32.00;59.30
54684;DHT22;40582;53.100;6.686;2023-07-08T14:46:52;32.00;57.80
54684;DHT22;40582;53.100;6.686;2023-07-08T14:49:21;31.90;58.80
54684;DHT22;40582;53.100;6.686;2023-07-08T14:51:47;31.90;58.80
54684;DHT22;40582;53.100;6.686;2023-07-08T14:54:13;31.90;58.80
54684;DHT22;40582;53.100;6.686;2023-07-08T14:56:41;31.90;59.20
54684;DHT22;40582;53.100;6.686;2023-07-08T14:59:12;31.90;58.70
54684;DHT22;40582;53.100;6.686;2023-07-08T15:01:40;31.90;59.00
54684;DHT22;40582;53.100;6.686;2023-07-08T15:04:15;31.90;59.70
54684;DHT22;40582;53.100;6.686;2023-07-08T15:06:41;31.80;59.10
54684;DHT22;40582;53.100;6.686;2023-07-08T15:09:08;31.80;59.20
54684;DHT22;40582;53.100;6.686;2023-07-08T15:11:34;31.80;59.30
54684;DHT22;40582;53.100;6.686;2023-07-08T15:14:01;31.80;58.60
54684;DHT22;40582;53.100;6.686;2023-07-08T15:16:27;31.80;58.40
54684;DHT22;40582;53.100;6.686;2023-07-08T15:18:53;31.70;58.90
54684;DHT22;40582;53.100;6.686;2023-07-08T15:21:19;31.70;59.30
54684;DHT22;40582;53.100;6.686;2023-07-08T15:23:44;31.80;59.50
54684;DHT22;40582;53.100;6.686;2023-07-08T15:26:13;31.70;59.40
54684;DHT22;40582;53.100;6.686;2023-07-08T15:28:46;31.70;58.80
54684;DHT22;40582;53.100;6.686;2023-07-08T15:31:18;31.70;58.50
54684;DHT22;40582;53.100;6.686;2023-07-08T15:33:45;31.70;59.00
54684;DHT22;40582;53.100;6.686;2023-07-08T15:36:12;31.60;58.50
54684;DHT22;40582;53.100;6.686;2023-07-08T15:38:42;31.60;59.10
54684;DHT22;40582;53.100;6.686;2023-07-08T15:41:19;31.60;59.20
54684;DHT22;40582;53.100;6.686;2023-07-08T15:43:46;31.60;59.60
54684;DHT22;40582;53.100;6.686;2023-07-08T15:46:13;31.60;60.00
54684;DHT22;40582;53.100;6.686;2023-07-08T15:48:38;31.60;59.30
54684;DHT22;40582;53.100;6.686;2023-07-08T15:51:04;31.50;58.80
54684;DHT22;40582;53.100;6.686;2023-07-08T15:53:30;31.50;58.90
54684;DHT22;40582;53.100;6.686;2023-07-08T15:55:55;31.40;59.10
54684;DHT22;40582;53.100;6.686;2023-07-08T16:00:50;31.40;58.50
54684;DHT22;40582;53.100;6.686;2023-07-08T16:03:28;31.40;59.20
54684;DHT22;40582;53.100;6.686;2023-07-08T16:05:55;31.40;59.30
54684;DHT22;40582;53.100;6.686;2023-07-08T16:08:22;31.30;59.10
54684;DHT22;40582;53.100;6.686;2023-07-08T16:11:00;31.30;59.20
54684;DHT22;40582;53.100;6.686;2023-07-08T16:13:30;31.30;59.20
54684;DHT22;40582;53.100;6.686;2023-07-08T16:15:56;31.30;59.40
54684;DHT22;40582;53.100;6.686;2023-07-08T16:18:22;31.30;59.10
54684;DHT22;40582;53.100;6.686;2023-07-08T16:20:49;31.20;59.00
54684;DHT22;40582;53.100;6.686;2023-07-08T16:23:14;31.20;58.80
54684;DHT22;40582;53.100;6.686;2023-07-08T16:25:46;31.20;59.00
54684;DHT22;40582;53.100;6.686;2023-07-08T16:28:32;31.20;58.30
54684;DHT22;40582;53.100;6.686;2023-07-08T16:30:59;31.20;59.10
54684;DHT22;40582;53.100;6.686;2023-07-08T16:33:25;31.20;59.20
54684;DHT22;40582;53.100;6.686;2023-07-08T16:35:51;31.10;59.20
54684;DHT22;40582;53.100;6.686;2023-07-08T16:38:17;31.00;59.20
54684;DHT22;40582;53.100;6.686;2023-07-08T16:40:43;31.00;59.10
54684;DHT22;40582;53.100;6.686;2023-07-08T16:43:28;31.00;58.60
54684;DHT22;40582;53.100;6.686;2023-07-08T16:45:55;30.90;58.90
54684;DHT22;40582;53.100;6.686;2023-07-08T16:48:20;30.80;59.30
54684;DHT22;40582;53.100;6.686;2023-07-08T16:50:46;30.80;60.30